createdAt,value
2022-11-15T00:03:54.523Z,7.53
2022-11-15T00:09:04.887Z,6.80
2022-11-15T00:14:14.926Z,7.13
2022-11-15T00:19:25.401Z,8.43
2022-11-15T00:24:35.927Z,7.60
2022-11-15T00:29:46.374Z,8.77
2022-11-15T00:34:57.401Z,7.63
2022-11-15T00:40:08.893Z,7.13
2022-11-15T00:45:19.002Z,6.60
2022-11-15T00:50:29.505Z,9.03
2022-11-15T00:55:40.105Z,7.33
2022-11-15T01:00:50.590Z,8.60
2022-11-15T01:06:01.723Z,8.07
2022-11-15T01:11:13.272Z,7.83
2022-11-15T01:16:23.604Z,7.70
2022-11-15T01:21:34.050Z,7.80
2022-11-15T01:26:44.451Z,8.33
2022-11-15T01:31:55.089Z,6.93
2022-11-15T01:37:05.445Z,8.67
2022-11-15T01:42:15.786Z,6.53
2022-11-15T01:47:33.974Z,7.53
2022-11-15T01:52:44.764Z,8.53
2022-11-15T01:57:59.076Z,7.27
2022-11-15T02:03:09.753Z,11.43
2022-11-15T02:08:22.992Z,7.37
2022-11-15T02:13:33.538Z,7.03
2022-11-15T02:18:53.174Z,7.90
2022-11-15T02:24:15.546Z,7.80
2022-11-15T02:30:06.892Z,10.63
2022-11-15T02:35:36.045Z,9.50
2022-11-15T02:40:54.863Z,10.57
2022-11-15T02:46:16.007Z,7.57
2022-11-15T02:51:26.657Z,6.03
2022-11-15T02:56:37.713Z,7.10
2022-11-15T03:02:15.652Z,6.27
2022-11-15T03:07:45.514Z,5.77
2022-11-15T03:13:05.162Z,5.67
2022-11-15T03:18:22.511Z,5.57
2022-11-15T03:23:35.017Z,6.37
2022-11-15T03:28:56.585Z,6.77
2022-11-15T03:34:11.983Z,4.80
2022-11-15T03:39:24.454Z,5.07
2022-11-15T03:44:46.553Z,6.73
2022-11-15T03:50:01.819Z,7.03
2022-11-15T03:55:16.721Z,7.17
2022-11-15T04:00:27.332Z,6.33
2022-11-15T04:05:37.814Z,5.93
2022-11-15T04:10:50.523Z,6.20
2022-11-15T04:16:00.833Z,5.37
2022-11-15T04:21:29.712Z,6.97
2022-11-15T04:26:40.074Z,6.27
2022-11-15T04:31:50.417Z,4.87
2022-11-15T04:37:12.641Z,6.93
2022-11-15T04:42:22.815Z,7.60
2022-11-15T04:47:33.448Z,4.63
2022-11-15T04:52:50.783Z,4.70
2022-11-15T04:58:03.070Z,4.83
2022-11-15T05:03:32.480Z,4.90
2022-11-15T05:08:43.468Z,4.63
2022-11-15T05:13:54.279Z,4.93
2022-11-15T05:19:05.083Z,5.27
2022-11-15T05:24:15.433Z,4.73
2022-11-15T05:29:25.591Z,5.53
2022-11-15T05:34:36.120Z,6.90
2022-11-15T05:39:46.508Z,5.70
2022-11-15T05:44:59.316Z,4.57
2022-11-15T05:50:13.722Z,4.40
2022-11-15T05:55:24.030Z,6.50
2022-11-15T06:00:34.495Z,5.50
2022-11-15T06:05:44.462Z,4.90
2022-11-15T06:10:54.677Z,4.17
2022-11-15T06:16:05.394Z,4.13
2022-11-15T06:21:15.505Z,4.30
2022-11-15T06:26:25.668Z,4.13
2022-11-15T06:31:36.109Z,3.73
2022-11-15T06:36:46.190Z,5.60
2022-11-15T06:41:56.504Z,7.53
2022-11-15T06:47:06.655Z,4.53
2022-11-15T06:52:19.449Z,4.67
2022-11-15T06:57:29.441Z,7.57
2022-11-15T07:02:39.574Z,6.87
2022-11-15T07:07:57.500Z,3.93
2022-11-15T07:13:07.812Z,3.87
2022-11-15T07:18:18.058Z,2.33
2022-11-15T07:23:28.734Z,5.53
2022-11-15T07:28:39.209Z,3.37
2022-11-15T07:33:49.950Z,3.23
2022-11-15T07:39:00.151Z,3.67
2022-11-15T07:44:10.385Z,3.23
2022-11-15T07:49:20.636Z,3.70
2022-11-15T07:54:31.214Z,4.20
2022-11-15T07:59:41.367Z,3.83
2022-11-15T08:04:51.564Z,2.10
2022-11-15T08:10:02.244Z,2.00
2022-11-15T08:15:12.530Z,2.83
2022-11-15T08:20:22.778Z,2.80
2022-11-15T08:25:34.333Z,2.57
2022-11-15T08:30:46.438Z,3.50
2022-11-15T08:36:01.170Z,2.03
2022-11-15T08:41:15.506Z,2.43
2022-11-15T08:46:25.851Z,1.30
2022-11-15T08:51:36.134Z,1.83
2022-11-15T08:56:46.555Z,1.33
2022-11-15T09:01:57.080Z,2.57
2022-11-15T09:07:07.713Z,2.63
2022-11-15T09:12:17.981Z,1.37
2022-11-15T09:17:28.324Z,3.60
2022-11-15T09:22:39.697Z,4.20
2022-11-15T09:27:49.864Z,2.90
2022-11-15T09:33:00.012Z,4.03
2022-11-15T09:38:10.571Z,2.13
2022-11-15T09:43:33.205Z,6.07
2022-11-15T09:48:48.456Z,2.17
2022-11-15T09:54:51.589Z,1.73
2022-11-15T09:59:55.620Z,2.70
2022-11-15T10:04:47.798Z,2.53
2022-11-15T10:10:00.184Z,2.07
2022-11-15T10:15:03.256Z,2.80
2022-11-15T10:20:22.041Z,1.73
2022-11-15T10:25:16.932Z,3.10
2022-11-15T10:30:14.487Z,1.93
2022-11-15T10:35:26.921Z,4.73
2022-11-15T10:40:25.447Z,3.13
2022-11-15T10:45:32.109Z,3.83
2022-11-15T10:50:32.995Z,3.13
2022-11-15T10:55:34.181Z,2.40
2022-11-15T11:00:32.998Z,2.07
2022-11-15T11:05:27.792Z,4.53
2022-11-15T11:10:49.632Z,2.17
2022-11-15T11:15:34.675Z,5.33
2022-11-15T11:21:01.873Z,2.07
2022-11-15T11:26:29.801Z,3.87
2022-11-15T11:31:34.874Z,1.10
2022-11-15T11:36:51.393Z,1.00
2022-11-15T11:41:58.178Z,2.07
2022-11-15T11:47:05.047Z,2.07
2022-11-15T11:52:26.679Z,2.60
2022-11-15T11:57:39.273Z,0.80
2022-11-15T12:02:42.315Z,2.17
2022-11-15T12:07:36.930Z,2.97
2022-11-15T12:12:42.387Z,2.40
2022-11-15T12:17:34.140Z,5.43
2022-11-15T12:23:01.755Z,2.20
2022-11-15T12:28:36.133Z,3.13
2022-11-15T12:33:46.691Z,6.33
2022-11-15T12:39:03.772Z,6.53
2022-11-15T12:43:56.543Z,3.37
2022-11-15T12:48:51.732Z,4.20
2022-11-15T12:53:43.559Z,5.07
2022-11-15T12:58:56.885Z,4.37
2022-11-15T13:04:19.655Z,1.90
2022-11-15T13:09:31.248Z,2.77
2022-11-15T13:14:38.137Z,5.17
2022-11-15T13:19:30.031Z,3.27
2022-11-15T13:24:21.720Z,3.43
2022-11-15T13:29:21.137Z,3.73
2022-11-15T13:34:50.612Z,3.73
2022-11-15T13:39:41.167Z,4.13
2022-11-15T13:44:34.186Z,7.90
2022-11-15T13:49:30.984Z,5.50
2022-11-15T13:54:28.720Z,2.10
2022-11-15T13:59:27.855Z,2.03
2022-11-15T14:04:22.838Z,3.37
2022-11-15T14:09:14.473Z,3.30
2022-11-15T14:14:09.064Z,5.80
2022-11-15T14:19:00.789Z,4.10
2022-11-15T14:23:52.657Z,2.57
2022-11-15T14:28:44.290Z,3.23
2022-11-15T14:33:39.900Z,1.93
2022-11-15T14:38:31.904Z,4.90
2022-11-15T14:43:24.229Z,3.93
2022-11-15T14:48:15.803Z,2.30
2022-11-15T14:53:07.908Z,3.03
2022-11-15T14:58:00.137Z,4.60
2022-11-15T15:02:54.782Z,4.00
2022-11-15T15:07:47.490Z,3.87
2022-11-15T15:12:39.632Z,4.97
2022-11-15T15:17:31.241Z,1.63
2022-11-15T15:22:23.498Z,3.00
2022-11-15T15:27:15.205Z,2.50
2022-11-15T15:32:07.134Z,3.83
2022-11-15T15:37:25.089Z,3.13
2022-11-15T15:42:16.770Z,3.17
2022-11-15T15:47:21.004Z,1.63
2022-11-15T15:52:12.658Z,4.00
2022-11-15T15:57:04.661Z,3.87
2022-11-15T16:01:56.242Z,2.50
2022-11-15T16:06:47.951Z,3.63
2022-11-15T16:11:39.686Z,2.17
2022-11-15T16:16:31.391Z,2.70
2022-11-15T16:21:23.070Z,2.90
2022-11-15T16:26:24.901Z,3.87
2022-11-15T16:31:19.144Z,1.97
2022-11-15T16:36:19.178Z,3.17
2022-11-15T16:41:10.797Z,2.80
2022-11-15T16:46:14.566Z,2.40
2022-11-15T16:51:06.529Z,3.63
2022-11-15T16:55:58.313Z,2.40
2022-11-15T17:00:57.883Z,2.70
2022-11-15T17:05:50.553Z,2.33
2022-11-15T17:10:42.287Z,2.70
2022-11-15T17:15:33.990Z,4.53
2022-11-15T17:20:26.116Z,4.97
2022-11-15T17:25:17.737Z,4.60
2022-11-15T17:30:11.979Z,4.37
2022-11-15T17:35:04.328Z,5.30
2022-11-15T17:39:56.042Z,2.50
2022-11-15T17:44:47.787Z,3.23
2022-11-15T17:49:40.772Z,3.77
2022-11-15T17:54:32.671Z,3.30
2022-11-15T17:59:24.303Z,3.27
2022-11-15T18:04:16.024Z,3.40
2022-11-15T18:09:08.474Z,2.80
2022-11-15T18:14:02.965Z,5.10
2022-11-15T18:18:55.194Z,2.97
2022-11-15T18:23:47.650Z,3.70
2022-11-15T18:28:43.390Z,3.83
2022-11-15T18:33:35.645Z,3.93
2022-11-15T18:38:30.660Z,4.03
2022-11-15T18:43:22.441Z,2.93
2022-11-15T18:48:14.072Z,4.60
2022-11-15T18:53:05.715Z,4.70
2022-11-15T18:57:57.307Z,5.10
2022-11-15T19:02:49.128Z,4.00
2022-11-15T19:07:40.949Z,5.23
2022-11-15T19:12:32.595Z,4.50
2022-11-15T19:17:24.191Z,4.43
2022-11-15T19:22:15.801Z,3.90
2022-11-15T19:27:07.386Z,4.10
2022-11-15T19:31:59.048Z,6.93
2022-11-15T19:36:51.144Z,5.07
2022-11-15T19:41:44.124Z,5.47
2022-11-15T19:46:36.332Z,4.93
2022-11-15T19:51:30.727Z,7.27
2022-11-15T19:56:23.089Z,4.83
2022-11-15T20:01:18.132Z,5.47
2022-11-15T20:06:12.291Z,6.50
2022-11-15T20:11:05.741Z,5.17
2022-11-15T20:15:58.268Z,5.20
2022-11-15T20:20:50.506Z,6.27
2022-11-15T20:25:46.631Z,4.67
2022-11-15T20:30:38.318Z,5.63
2022-11-15T20:35:30.655Z,5.20
2022-11-15T20:40:22.294Z,5.80
2022-11-15T20:45:13.971Z,5.30
2022-11-15T20:50:35.261Z,5.53
2022-11-15T20:55:18.613Z,6.53
2022-11-15T21:00:10.872Z,6.03
2022-11-15T21:05:02.762Z,5.27
2022-11-15T21:10:12.835Z,7.13
2022-11-15T21:15:04.996Z,5.83
2022-11-15T21:19:56.573Z,5.83
2022-11-15T21:24:48.137Z,5.80
2022-11-15T21:29:39.815Z,5.87
2022-11-15T21:34:31.418Z,7.83
2022-11-15T21:39:23.084Z,6.07
2022-11-15T21:44:14.765Z,6.43
2022-11-15T21:49:07.555Z,6.17
2022-11-15T21:53:59.421Z,6.00
2022-11-15T21:58:51.450Z,6.30
2022-11-15T22:03:43.250Z,4.20
2022-11-15T22:08:35.505Z,4.30
2022-11-15T22:13:27.443Z,4.60
2022-11-15T22:18:23.600Z,3.97
2022-11-15T22:23:17.976Z,5.90
2022-11-15T22:28:09.688Z,4.17
2022-11-15T22:33:01.404Z,5.30
2022-11-15T22:37:53.111Z,4.40
2022-11-15T22:42:44.811Z,6.37
2022-11-15T22:47:36.532Z,4.93
2022-11-15T22:52:28.152Z,3.87
2022-11-15T22:57:19.836Z,3.90
2022-11-15T23:02:11.537Z,4.07
2022-11-15T23:07:03.271Z,5.10
2022-11-15T23:12:15.076Z,3.67
2022-11-15T23:17:07.041Z,4.03
2022-11-15T23:22:17.220Z,3.40
2022-11-15T23:27:09.163Z,4.27
2022-11-15T23:32:19.301Z,3.93
2022-11-15T23:37:13.405Z,4.63
2022-11-15T23:42:09.023Z,4.43
2022-11-15T23:47:01.216Z,3.60
2022-11-15T23:51:52.866Z,4.83
2022-11-15T23:56:44.511Z,3.90
